sensor_id;sensor_type;location;lat;lon;timestamp;temperature;humidity
13123;DHT22;6627;50.920;12.050;2023-04-01T00:01:13;9.40;99.90
13123;DHT22;6627;50.920;12.050;2023-04-01T00:03:42;9.50;99.90
13123;DHT22;6627;50.920;12.050;2023-04-01T00:06:12;9.50;99.90
13123;DHT22;6627;50.920;12.050;2023-04-01T00:08:42;9.50;99.90
13123;DHT22;6627;50.920;12.050;2023-04-01T00:11:10;9.50;99.90
13123;DHT22;6627;50.920;12.050;2023-04-01T00:13:37;9.50;99.90
13123;DHT22;6627;50.920;12.050;2023-04-01T00:16:06;9.40;99.90
13123;DHT22;6627;50.920;12.050;2023-04-01T00:18:34;9.50;99.90
13123;DHT22;6627;50.920;12.050;2023-04-01T00:21:01;9.40;99.90
13123;DHT22;6627;50.920;12.050;2023-04-01T00:23:29;9.30;99.90
13123;DHT22;6627;50.920;12.050;2023-04-01T00:28:28;9.20;99.90
13123;DHT22;6627;50.920;12.050;2023-04-01T00:30:56;9.30;99.90
13123;DHT22;6627;50.920;12.050;2023-04-01T00:33:23;9.30;99.90
13123;DHT22;6627;50.920;12.050;2023-04-01T00:35:50;9.20;99.90
13123;DHT22;6627;50.920;12.050;2023-04-01T00:38:17;9.10;99.90
13123;DHT22;6627;50.920;12.050;2023-04-01T00:40:46;9.20;99.90
13123;DHT22;6627;50.920;12.050;2023-04-01T00:43:17;9.20;99.90
13123;DHT22;6627;50.920;12.050;2023-04-01T00:45:47;9.40;99.90
13123;DHT22;6627;50.920;12.050;2023-04-01T00:48:18;9.40;99.90
13123;DHT22;6627;50.920;12.050;2023-04-01T00:50:52;9.40;99.90
13123;DHT22;6627;50.920;12.050;2023-04-01T00:53:23;9.30;99.90
13123;DHT22;6627;50.920;12.050;2023-04-01T00:55:55;9.40;99.90
13123;DHT22;6627;50.920;12.050;2023-04-01T01:01:00;9.50;99.90
13123;DHT22;6627;50.920;12.050;2023-04-01T01:03:28;9.40;99.90
13123;DHT22;6627;50.920;12.050;2023-04-01T01:06:08;9.50;99.90
13123;DHT22;6627;50.920;12.050;2023-04-01T01:08:51;9.40;99.90
13123;DHT22;6627;50.920;12.050;2023-04-01T01:11:37;9.50;99.90
13123;DHT22;6627;50.920;12.050;2023-04-01T01:14:19;9.50;99.90
13123;DHT22;6627;50.920;12.050;2023-04-01T01:16:59;9.50;99.90
13123;DHT22;6627;50.920;12.050;2023-04-01T01:23:03;9.30;99.90
13123;DHT22;6627;50.920;12.050;2023-04-01T01:25:48;9.30;99.90
13123;DHT22;6627;50.920;12.050;2023-04-01T01:28:35;9.30;99.90
13123;DHT22;6627;50.920;12.050;2023-04-01T01:31:17;9.30;99.90
13123;DHT22;6627;50.920;12.050;2023-04-01T01:34:03;9.30;99.90
13123;DHT22;6627;50.920;12.050;2023-04-01T01:36:42;9.50;99.90
13123;DHT22;6627;50.920;12.050;2023-04-01T01:39:17;9.30;99.90
13123;DHT22;6627;50.920;12.050;2023-04-01T01:41:46;9.30;99.90
13123;DHT22;6627;50.920;12.050;2023-04-01T01:44:16;9.40;99.90
13123;DHT22;6627;50.920;12.050;2023-04-01T01:46:45;9.40;99.90
13123;DHT22;6627;50.920;12.050;2023-04-01T01:49:15;9.30;99.90
13123;DHT22;6627;50.920;12.050;2023-04-01T01:51:47;9.10;99.90
13123;DHT22;6627;50.920;12.050;2023-04-01T01:54:15;9.00;99.90
13123;DHT22;6627;50.920;12.050;2023-04-01T01:56:45;9.00;99.90
13123;DHT22;6627;50.920;12.050;2023-04-01T01:59:19;9.00;99.90
13123;DHT22;6627;50.920;12.050;2023-04-01T02:01:50;9.10;99.90
13123;DHT22;6627;50.920;12.050;2023-04-01T02:06:54;9.10;99.90
13123;DHT22;6627;50.920;12.050;2023-04-01T02:09:26;9.10;99.90
13123;DHT22;6627;50.920;12.050;2023-04-01T02:11:57;9.10;99.90
13123;DHT22;6627;50.920;12.050;2023-04-01T02:14:31;9.10;99.90
13123;DHT22;6627;50.920;12.050;2023-04-01T02:17:08;9.10;99.90
13123;DHT22;6627;50.920;12.050;2023-04-01T02:19:41;9.10;99.90
13123;DHT22;6627;50.920;12.050;2023-04-01T02:22:19;9.20;99.90
13123;DHT22;6627;50.920;12.050;2023-04-01T02:24:50;9.20;99.90
13123;DHT22;6627;50.920;12.050;2023-04-01T02:29:50;9.30;99.90
13123;DHT22;6627;50.920;12.050;2023-04-01T02:32:18;9.20;99.90
13123;DHT22;6627;50.920;12.050;2023-04-01T02:34:47;9.10;99.90
13123;DHT22;6627;50.920;12.050;2023-04-01T02:37:17;9.00;99.90
13123;DHT22;6627;50.920;12.050;2023-04-01T02:42:13;9.20;99.90
13123;DHT22;6627;50.920;12.050;2023-04-01T02:44:41;9.20;99.90
13123;DHT22;6627;50.920;12.050;2023-04-01T02:47:08;9.20;99.90
13123;DHT22;6627;50.920;12.050;2023-04-01T02:49:35;9.30;99.90
13123;DHT22;6627;50.920;12.050;2023-04-01T02:52:02;9.20;99.90
13123;DHT22;6627;50.920;12.050;2023-04-01T02:56:59;9.20;99.90
13123;DHT22;6627;50.920;12.050;2023-04-01T02:59:26;9.20;99.90
13123;DHT22;6627;50.920;12.050;2023-04-01T03:01:53;9.20;99.90
13123;DHT22;6627;50.920;12.050;2023-04-01T03:04:21;9.20;99.90
13123;DHT22;6627;50.920;12.050;2023-04-01T03:06:48;9.20;99.90
13123;DHT22;6627;50.920;12.050;2023-04-01T03:09:15;9.20;99.90
13123;DHT22;6627;50.920;12.050;2023-04-01T03:11:44;9.30;99.90
13123;DHT22;6627;50.920;12.050;2023-04-01T03:14:11;9.20;99.90
13123;DHT22;6627;50.920;12.050;2023-04-01T03:16:38;9.20;99.90
13123;DHT22;6627;50.920;12.050;2023-04-01T03:19:06;9.30;99.90
13123;DHT22;6627;50.920;12.050;2023-04-01T03:21:33;9.20;99.90
13123;DHT22;6627;50.920;12.050;2023-04-01T03:24:00;9.20;99.90
13123;DHT22;6627;50.920;12.050;2023-04-01T03:26:28;9.20;99.90
13123;DHT22;6627;50.920;12.050;2023-04-01T03:28:56;9.20;99.90
13123;DHT22;6627;50.920;12.050;2023-04-01T03:31:24;9.20;99.90
13123;DHT22;6627;50.920;12.050;2023-04-01T03:33:51;9.20;99.90
13123;DHT22;6627;50.920;12.050;2023-04-01T03:36:18;9.10;99.90
13123;DHT22;6627;50.920;12.050;2023-04-01T03:38:45;9.10;99.90
13123;DHT22;6627;50.920;12.050;2023-04-01T03:41:13;9.20;99.90
13123;DHT22;6627;50.920;12.050;2023-04-01T03:43:41;9.10;99.90
13123;DHT22;6627;50.920;12.050;2023-04-01T03:46:10;9.10;99.90
13123;DHT22;6627;50.920;12.050;2023-04-01T03:48:37;9.20;99.90
13123;DHT22;6627;50.920;12.050;2023-04-01T03:51:06;9.10;99.90
13123;DHT22;6627;50.920;12.050;2023-04-01T03:53:34;9.10;99.90
13123;DHT22;6627;50.920;12.050;2023-04-01T03:56:03;9.00;99.90
13123;DHT22;6627;50.920;12.050;2023-04-01T03:58:31;9.10;99.90
13123;DHT22;6627;50.920;12.050;2023-04-01T04:00:59;9.10;99.90
13123;DHT22;6627;50.920;12.050;2023-04-01T04:03:27;9.10;99.90
13123;DHT22;6627;50.920;12.050;2023-04-01T04:05:54;9.10;99.90
13123;DHT22;6627;50.920;12.050;2023-04-01T04:10:54;9.10;99.90
13123;DHT22;6627;50.920;12.050;2023-04-01T04:13:22;9.20;99.90
13123;DHT22;6627;50.920;12.050;2023-04-01T04:15:49;9.20;99.90
13123;DHT22;6627;50.920;12.050;2023-04-01T04:18:16;9.20;99.90
13123;DHT22;6627;50.920;12.050;2023-04-01T04:20:45;9.20;99.90
13123;DHT22;6627;50.920;12.050;2023-04-01T04:23:16;9.20;99.90
13123;DHT22;6627;50.920;12.050;2023-04-01T04:25:53;9.20;99.90
13123;DHT22;6627;50.920;12.050;2023-04-01T04:28:22;9.30;99.90
13123;DHT22;6627;50.920;12.050;2023-04-01T04:30:49;9.30;99.90
13123;DHT22;6627;50.920;12.050;2023-04-01T04:33:18;9.20;99.90
13123;DHT22;6627;50.920;12.050;2023-04-01T04:35:46;9.20;99.90
13123;DHT22;6627;50.920;12.050;2023-04-01T04:38:14;9.20;99.90
13123;DHT22;6627;50.920;12.050;2023-04-01T04:40:43;9.20;99.90
13123;DHT22;6627;50.920;12.050;2023-04-01T04:43:11;9.20;99.90
13123;DHT22;6627;50.920;12.050;2023-04-01T04:45:39;9.30;99.90
13123;DHT22;6627;50.920;12.050;2023-04-01T04:48:07;9.30;99.90
13123;DHT22;6627;50.920;12.050;2023-04-01T04:50:35;9.30;99.90
13123;DHT22;6627;50.920;12.050;2023-04-01T04:53:03;9.20;99.90
13123;DHT22;6627;50.920;12.050;2023-04-01T04:55:30;9.20;99.90
13123;DHT22;6627;50.920;12.050;2023-04-01T04:57:57;9.30;99.90
13123;DHT22;6627;50.920;12.050;2023-04-01T05:00:24;9.40;99.90
13123;DHT22;6627;50.920;12.050;2023-04-01T05:02:52;9.30;99.90
13123;DHT22;6627;50.920;12.050;2023-04-01T05:05:19;9.30;99.90
13123;DHT22;6627;50.920;12.050;2023-04-01T05:10:15;9.30;99.90
13123;DHT22;6627;50.920;12.050;2023-04-01T05:12:42;9.30;99.90
13123;DHT22;6627;50.920;12.050;2023-04-01T05:15:10;9.30;99.90
13123;DHT22;6627;50.920;12.050;2023-04-01T05:17:38;9.40;99.90
13123;DHT22;6627;50.920;12.050;2023-04-01T05:20:06;9.30;99.90
13123;DHT22;6627;50.920;12.050;2023-04-01T05:22:34;9.40;99.90
13123;DHT22;6627;50.920;12.050;2023-04-01T05:27:30;9.40;99.90
13123;DHT22;6627;50.920;12.050;2023-04-01T05:29:57;9.40;99.90
13123;DHT22;6627;50.920;12.050;2023-04-01T05:32:24;9.40;99.90
13123;DHT22;6627;50.920;12.050;2023-04-01T05:34:52;9.40;99.90
13123;DHT22;6627;50.920;12.050;2023-04-01T05:37:19;9.40;99.90
13123;DHT22;6627;50.920;12.050;2023-04-01T05:39:48;9.40;99.90
13123;DHT22;6627;50.920;12.050;2023-04-01T05:42:15;9.40;99.90
13123;DHT22;6627;50.920;12.050;2023-04-01T05:44:44;9.50;99.90
13123;DHT22;6627;50.920;12.050;2023-04-01T05:47:11;9.50;99.90
13123;DHT22;6627;50.920;12.050;2023-04-01T05:49:38;9.50;99.90
13123;DHT22;6627;50.920;12.050;2023-04-01T05:52:05;9.60;99.90
13123;DHT22;6627;50.920;12.050;2023-04-01T05:54:33;9.60;99.90
13123;DHT22;6627;50.920;12.050;2023-04-01T05:57:00;9.70;99.90
13123;DHT22;6627;50.920;12.050;2023-04-01T05:59:27;9.70;99.90
13123;DHT22;6627;50.920;12.050;2023-04-01T06:01:55;9.80;50.50
13123;DHT22;6627;50.920;12.050;2023-04-01T06:04:23;9.80;55.60
13123;DHT22;6627;50.920;12.050;2023-04-01T06:06:51;9.80;1.00
13123;DHT22;6627;50.920;12.050;2023-04-01T06:09:21;9.80;28.10
13123;DHT22;6627;50.920;12.050;2023-04-01T06:12:16;9.80;1.00
13123;DHT22;6627;50.920;12.050;2023-04-01T06:15:03;9.80;1.00
13123;DHT22;6627;50.920;12.050;2023-04-01T06:17:57;9.80;1.00
13123;DHT22;6627;50.920;12.050;2023-04-01T06:20:42;9.80;1.00
13123;DHT22;6627;50.920;12.050;2023-04-01T06:26:18;9.90;1.00
13123;DHT22;6627;50.920;12.050;2023-04-01T06:29:35;9.90;1.00
13123;DHT22;6627;50.920;12.050;2023-04-01T06:32:30;9.90;1.00
13123;DHT22;6627;50.920;12.050;2023-04-01T06:35:24;9.90;90.50
13123;DHT22;6627;50.920;12.050;2023-04-01T06:38:34;9.80;93.50
13123;DHT22;6627;50.920;12.050;2023-04-01T06:41:27;9.90;1.00
13123;DHT22;6627;50.920;12.050;2023-04-01T06:44:15;9.90;1.00
13123;DHT22;6627;50.920;12.050;2023-04-01T06:46:48;9.90;1.00
13123;DHT22;6627;50.920;12.050;2023-04-01T06:49:33;10.00;1.00
13123;DHT22;6627;50.920;12.050;2023-04-01T06:52:17;10.00;87.60
13123;DHT22;6627;50.920;12.050;2023-04-01T06:54:53;10.00;99.90
13123;DHT22;6627;50.920;12.050;2023-04-01T06:57:32;10.00;1.00
13123;DHT22;6627;50.920;12.050;2023-04-01T07:00:11;10.00;96.30
13123;DHT22;6627;50.920;12.050;2023-04-01T07:02:45;10.00;99.90
13123;DHT22;6627;50.920;12.050;2023-04-01T07:05:19;10.00;99.90
13123;DHT22;6627;50.920;12.050;2023-04-01T07:07:51;10.00;99.90
13123;DHT22;6627;50.920;12.050;2023-04-01T07:10:28;10.10;99.90
13123;DHT22;6627;50.920;12.050;2023-04-01T07:13:05;10.00;99.90
13123;DHT22;6627;50.920;12.050;2023-04-01T07:15:40;10.10;99.90
13123;DHT22;6627;50.920;12.050;2023-04-01T07:18:14;10.10;99.90
13123;DHT22;6627;50.920;12.050;2023-04-01T07:20:45;10.10;99.90
13123;DHT22;6627;50.920;12.050;2023-04-01T07:23:21;10.20;99.90
13123;DHT22;6627;50.920;12.050;2023-04-01T07:25:53;10.20;99.90
13123;DHT22;6627;50.920;12.050;2023-04-01T07:28:30;10.30;99.90
13123;DHT22;6627;50.920;12.050;2023-04-01T07:31:07;10.30;42.30
13123;DHT22;6627;50.920;12.050;2023-04-01T07:33:49;10.30;99.90
13123;DHT22;6627;50.920;12.050;2023-04-01T07:36:30;10.40;99.90
13123;DHT22;6627;50.920;12.050;2023-04-01T07:41:50;10.50;99.90
13123;DHT22;6627;50.920;12.050;2023-04-01T07:44:27;10.50;91.10
13123;DHT22;6627;50.920;12.050;2023-04-01T07:47:26;10.60;37.30
13123;DHT22;6627;50.920;12.050;2023-04-01T07:53:00;10.60;1.00
13123;DHT22;6627;50.920;12.050;2023-04-01T07:55:43;10.60;1.00
13123;DHT22;6627;50.920;12.050;2023-04-01T07:58:21;10.70;60.70
13123;DHT22;6627;50.920;12.050;2023-04-01T08:01:01;10.70;1.00
13123;DHT22;6627;50.920;12.050;2023-04-01T08:03:49;10.80;1.00
13123;DHT22;6627;50.920;12.050;2023-04-01T08:06:30;10.90;1.00
13123;DHT22;6627;50.920;12.050;2023-04-01T08:09:06;10.90;99.90
13123;DHT22;6627;50.920;12.050;2023-04-01T08:11:58;10.90;79.70
13123;DHT22;6627;50.920;12.050;2023-04-01T08:14:40;11.00;1.00
13123;DHT22;6627;50.920;12.050;2023-04-01T08:20:04;11.20;99.90
13123;DHT22;6627;50.920;12.050;2023-04-01T08:22:43;11.20;99.90
13123;DHT22;6627;50.920;12.050;2023-04-01T08:25:19;11.40;1.00
13123;DHT22;6627;50.920;12.050;2023-04-01T08:27:54;11.50;99.90
13123;DHT22;6627;50.920;12.050;2023-04-01T08:30:31;11.40;1.00
13123;DHT22;6627;50.920;12.050;2023-04-01T08:33:12;11.50;1.00
13123;DHT22;6627;50.920;12.050;2023-04-01T08:35:46;11.50;1.00
13123;DHT22;6627;50.920;12.050;2023-04-01T08:38:24;11.60;99.90
13123;DHT22;6627;50.920;12.050;2023-04-01T08:40:59;11.60;21.80
13123;DHT22;6627;50.920;12.050;2023-04-01T08:43:53;11.70;1.00
13123;DHT22;6627;50.920;12.050;2023-04-01T08:47:01;11.70;99.90
13123;DHT22;6627;50.920;12.050;2023-04-01T08:49:56;11.70;95.80
13123;DHT22;6627;50.920;12.050;2023-04-01T08:52:36;11.70;1.00
13123;DHT22;6627;50.920;12.050;2023-04-01T08:55:25;11.70;99.90
13123;DHT22;6627;50.920;12.050;2023-04-01T08:58:29;11.60;99.90
13123;DHT22;6627;50.920;12.050;2023-04-01T09:01:26;11.60;1.00
13123;DHT22;6627;50.920;12.050;2023-04-01T09:04:25;11.60;1.00
13123;DHT22;6627;50.920;12.050;2023-04-01T09:07:13;11.70;1.00
13123;DHT22;6627;50.920;12.050;2023-04-01T09:10:18;11.70;1.00
13123;DHT22;6627;50.920;12.050;2023-04-01T09:16:11;11.70;99.90
13123;DHT22;6627;50.920;12.050;2023-04-01T09:19:04;11.80;99.90
13123;DHT22;6627;50.920;12.050;2023-04-01T09:25:30;11.90;1.00
13123;DHT22;6627;50.920;12.050;2023-04-01T09:28:11;11.90;1.00
13123;DHT22;6627;50.920;12.050;2023-04-01T09:31:16;11.80;99.90
13123;DHT22;6627;50.920;12.050;2023-04-01T09:34:10;11.80;99.90
13123;DHT22;6627;50.920;12.050;2023-04-01T09:40:01;11.90;1.00
13123;DHT22;6627;50.920;12.050;2023-04-01T09:45:37;12.00;1.00
13123;DHT22;6627;50.920;12.050;2023-04-01T09:48:25;11.90;1.00
13123;DHT22;6627;50.920;12.050;2023-04-01T09:51:17;11.90;99.90
13123;DHT22;6627;50.920;12.050;2023-04-01T09:54:04;11.90;99.90
13123;DHT22;6627;50.920;12.050;2023-04-01T09:57:16;12.00;1.00
13123;DHT22;6627;50.920;12.050;2023-04-01T10:06:57;12.00;60.40
13123;DHT22;6627;50.920;12.050;2023-04-01T10:16:25;12.30;1.00
13123;DHT22;6627;50.920;12.050;2023-04-01T10:22:21;12.30;1.00
13123;DHT22;6627;50.920;12.050;2023-04-01T10:25:24;12.40;1.00
13123;DHT22;6627;50.920;12.050;2023-04-01T10:28:12;12.50;1.00
13123;DHT22;6627;50.920;12.050;2023-04-01T10:34:38;12.20;99.90
13123;DHT22;6627;50.920;12.050;2023-04-01T10:37:57;12.20;88.10
13123;DHT22;6627;50.920;12.050;2023-04-01T10:40:57;12.10;1.00
13123;DHT22;6627;50.920;12.050;2023-04-01T10:44:09;12.20;5.10
13123;DHT22;6627;50.920;12.050;2023-04-01T10:53:40;12.20;1.00
13123;DHT22;6627;50.920;12.050;2023-04-01T10:56:33;12.30;1.00
13123;DHT22;6627;50.920;12.050;2023-04-01T10:59:31;12.40;1.00
13123;DHT22;6627;50.920;12.050;2023-04-01T11:06:15;12.60;1.00
13123;DHT22;6627;50.920;12.050;2023-04-01T11:15:48;12.50;1.00
13123;DHT22;6627;50.920;12.050;2023-04-01T11:19:09;12.50;1.00
13123;DHT22;6627;50.920;12.050;2023-04-01T11:22:29;12.50;1.00
13123;DHT22;6627;50.920;12.050;2023-04-01T11:25:29;12.30;1.00
13123;DHT22;6627;50.920;12.050;2023-04-01T11:28:42;12.20;99.90
13123;DHT22;6627;50.920;12.050;2023-04-01T11:31:37;12.20;1.00
13123;DHT22;6627;50.920;12.050;2023-04-01T11:34:24;12.10;1.00
13123;DHT22;6627;50.920;12.050;2023-04-01T11:37:14;12.10;1.00
13123;DHT22;6627;50.920;12.050;2023-04-01T11:39:59;12.00;1.00
13123;DHT22;6627;50.920;12.050;2023-04-01T11:42:41;12.00;1.00
13123;DHT22;6627;50.920;12.050;2023-04-01T11:45:22;12.00;1.00
13123;DHT22;6627;50.920;12.050;2023-04-01T11:48:23;11.90;1.00
13123;DHT22;6627;50.920;12.050;2023-04-01T11:53:53;11.90;1.00
13123;DHT22;6627;50.920;12.050;2023-04-01T11:56:44;11.90;1.00
13123;DHT22;6627;50.920;12.050;2023-04-01T11:59:41;11.90;91.30
13123;DHT22;6627;50.920;12.050;2023-04-01T12:02:27;11.80;99.90
13123;DHT22;6627;50.920;12.050;2023-04-01T12:05:13;11.80;1.00
13123;DHT22;6627;50.920;12.050;2023-04-01T12:07:59;11.90;1.00
13123;DHT22;6627;50.920;12.050;2023-04-01T12:10:39;11.90;99.90
13123;DHT22;6627;50.920;12.050;2023-04-01T12:13:24;12.00;1.00
13123;DHT22;6627;50.920;12.050;2023-04-01T12:16:13;12.10;99.90
13123;DHT22;6627;50.920;12.050;2023-04-01T12:19:10;12.30;99.90
13123;DHT22;6627;50.920;12.050;2023-04-01T12:21:51;12.60;99.90
13123;DHT22;6627;50.920;12.050;2023-04-01T12:24:46;12.80;3.10
13123;DHT22;6627;50.920;12.050;2023-04-01T12:27:32;12.70;1.00
13123;DHT22;6627;50.920;12.050;2023-04-01T12:36:37;12.50;1.00
13123;DHT22;6627;50.920;12.050;2023-04-01T12:39:29;12.40;1.00
13123;DHT22;6627;50.920;12.050;2023-04-01T12:42:14;12.60;1.00
13123;DHT22;6627;50.920;12.050;2023-04-01T12:45:11;12.60;1.00
13123;DHT22;6627;50.920;12.050;2023-04-01T12:48:01;12.60;4.40
13123;DHT22;6627;50.920;12.050;2023-04-01T12:51:08;12.70;1.00
13123;DHT22;6627;50.920;12.050;2023-04-01T12:57:17;12.50;99.90
13123;DHT22;6627;50.920;12.050;2023-04-01T13:00:12;12.50;99.90
13123;DHT22;6627;50.920;12.050;2023-04-01T13:03:07;12.50;99.90
13123;DHT22;6627;50.920;12.050;2023-04-01T13:06:10;12.40;99.90
13123;DHT22;6627;50.920;12.050;2023-04-01T13:09:05;12.50;99.90
13123;DHT22;6627;50.920;12.050;2023-04-01T13:11:54;12.50;99.90
13123;DHT22;6627;50.920;12.050;2023-04-01T13:14:48;12.60;99.90
13123;DHT22;6627;50.920;12.050;2023-04-01T13:20:12;12.40;99.90
13123;DHT22;6627;50.920;12.050;2023-04-01T13:22:57;12.40;99.90
13123;DHT22;6627;50.920;12.050;2023-04-01T13:25:37;12.30;99.90
13123;DHT22;6627;50.920;12.050;2023-04-01T13:28:15;12.40;99.90
13123;DHT22;6627;50.920;12.050;2023-04-01T13:30:57;12.40;99.90
13123;DHT22;6627;50.920;12.050;2023-04-01T13:33:37;12.40;99.90
13123;DHT22;6627;50.920;12.050;2023-04-01T13:36:19;12.50;99.90
13123;DHT22;6627;50.920;12.050;2023-04-01T13:42:13;12.60;99.90
13123;DHT22;6627;50.920;12.050;2023-04-01T13:44:48;12.70;99.90
13123;DHT22;6627;50.920;12.050;2023-04-01T13:47:34;12.70;99.90
13123;DHT22;6627;50.920;12.050;2023-04-01T13:50:42;12.60;99.90
13123;DHT22;6627;50.920;12.050;2023-04-01T13:53:52;12.60;99.90
13123;DHT22;6627;50.920;12.050;2023-04-01T13:56:34;12.50;99.90
13123;DHT22;6627;50.920;12.050;2023-04-01T13:59:22;12.20;99.90
13123;DHT22;6627;50.920;12.050;2023-04-01T14:02:29;12.10;99.90
13123;DHT22;6627;50.920;12.050;2023-04-01T14:05:26;11.90;1.00
13123;DHT22;6627;50.920;12.050;2023-04-01T14:10:50;12.10;1.00
13123;DHT22;6627;50.920;12.050;2023-04-01T14:13:34;12.10;99.90
13123;DHT22;6627;50.920;12.050;2023-04-01T14:16:24;12.30;18.60
13123;DHT22;6627;50.920;12.050;2023-04-01T14:19:38;12.50;99.90
13123;DHT22;6627;50.920;12.050;2023-04-01T14:22:24;12.80;1.00
13123;DHT22;6627;50.920;12.050;2023-04-01T14:25:21;12.90;1.00
13123;DHT22;6627;50.920;12.050;2023-04-01T14:28:09;12.90;99.90
13123;DHT22;6627;50.920;12.050;2023-04-01T14:30:55;12.80;99.90
13123;DHT22;6627;50.920;12.050;2023-04-01T14:33:40;12.70;99.90
13123;DHT22;6627;50.920;12.050;2023-04-01T14:36:28;12.70;99.90
13123;DHT22;6627;50.920;12.050;2023-04-01T14:39:15;12.60;99.90
13123;DHT22;6627;50.920;12.050;2023-04-01T14:42:08;12.50;99.90
13123;DHT22;6627;50.920;12.050;2023-04-01T14:44:57;12.30;99.90
13123;DHT22;6627;50.920;12.050;2023-04-01T14:47:43;12.10;1.00
13123;DHT22;6627;50.920;12.050;2023-04-01T14:50:17;12.00;75.80
13123;DHT22;6627;50.920;12.050;2023-04-01T14:52:57;12.10;1.00
13123;DHT22;6627;50.920;12.050;2023-04-01T14:55:48;12.10;1.00
13123;DHT22;6627;50.920;12.050;2023-04-01T14:58:18;12.10;1.00
13123;DHT22;6627;50.920;12.050;2023-04-01T15:00:55;12.20;1.00
13123;DHT22;6627;50.920;12.050;2023-04-01T15:03:30;12.20;1.00
13123;DHT22;6627;50.920;12.050;2023-04-01T15:06:35;12.10;1.00
13123;DHT22;6627;50.920;12.050;2023-04-01T15:09:29;12.20;1.00
13123;DHT22;6627;50.920;12.050;2023-04-01T15:12:16;12.20;1.00
13123;DHT22;6627;50.920;12.050;2023-04-01T15:15:04;12.20;1.00
13123;DHT22;6627;50.920;12.050;2023-04-01T15:17:48;12.20;1.00
13123;DHT22;6627;50.920;12.050;2023-04-01T15:20:38;12.20;1.00
13123;DHT22;6627;50.920;12.050;2023-04-01T15:23:26;12.10;1.00
13123;DHT22;6627;50.920;12.050;2023-04-01T15:26:17;12.10;1.00
13123;DHT22;6627;50.920;12.050;2023-04-01T15:29:05;12.10;1.00
13123;DHT22;6627;50.920;12.050;2023-04-01T15:32:17;12.10;38.00
13123;DHT22;6627;50.920;12.050;2023-04-01T15:34:51;12.10;63.40
13123;DHT22;6627;50.920;12.050;2023-04-01T15:37:35;12.10;37.60
13123;DHT22;6627;50.920;12.050;2023-04-01T15:40:19;12.10;99.90
13123;DHT22;6627;50.920;12.050;2023-04-01T15:43:03;12.10;99.90
13123;DHT22;6627;50.920;12.050;2023-04-01T15:45:47;12.10;99.90
13123;DHT22;6627;50.920;12.050;2023-04-01T15:48:33;12.10;99.90
13123;DHT22;6627;50.920;12.050;2023-04-01T15:51:23;12.10;1.00
13123;DHT22;6627;50.920;12.050;2023-04-01T15:57:28;12.00;99.90
13123;DHT22;6627;50.920;12.050;2023-04-01T16:00:23;12.00;99.90
13123;DHT22;6627;50.920;12.050;2023-04-01T16:03:10;12.00;99.90
13123;DHT22;6627;50.920;12.050;2023-04-01T16:08:56;12.00;1.00
13123;DHT22;6627;50.920;12.050;2023-04-01T16:11:48;11.90;1.00
13123;DHT22;6627;50.920;12.050;2023-04-01T16:14:31;11.90;99.90
13123;DHT22;6627;50.920;12.050;2023-04-01T16:17:22;11.90;99.90
13123;DHT22;6627;50.920;12.050;2023-04-01T16:20:02;11.80;99.90
13123;DHT22;6627;50.920;12.050;2023-04-01T16:22:49;11.80;1.00
13123;DHT22;6627;50.920;12.050;2023-04-01T16:25:33;11.80;99.90
13123;DHT22;6627;50.920;12.050;2023-04-01T16:28:18;11.80;99.90
13123;DHT22;6627;50.920;12.050;2023-04-01T16:30:56;11.50;1.00
13123;DHT22;6627;50.920;12.050;2023-04-01T16:33:36;11.40;1.00
13123;DHT22;6627;50.920;12.050;2023-04-01T16:36:22;11.30;1.00
13123;DHT22;6627;50.920;12.050;2023-04-01T16:39:07;11.30;1.00
13123;DHT22;6627;50.920;12.050;2023-04-01T16:42:07;11.30;1.00
13123;DHT22;6627;50.920;12.050;2023-04-01T16:44:48;11.30;99.90
13123;DHT22;6627;50.920;12.050;2023-04-01T16:47:22;11.30;99.90
13123;DHT22;6627;50.920;12.050;2023-04-01T16:50:00;11.30;1.00
13123;DHT22;6627;50.920;12.050;2023-04-01T16:52:48;11.20;1.00
13123;DHT22;6627;50.920;12.050;2023-04-01T16:55:34;11.10;98.30
13123;DHT22;6627;50.920;12.050;2023-04-01T16:58:10;11.00;99.90
13123;DHT22;6627;50.920;12.050;2023-04-01T17:00:49;11.00;99.90
13123;DHT22;6627;50.920;12.050;2023-04-01T17:03:22;10.90;99.90
13123;DHT22;6627;50.920;12.050;2023-04-01T17:06:05;11.00;99.90
13123;DHT22;6627;50.920;12.050;2023-04-01T17:08:56;10.90;99.90
13123;DHT22;6627;50.920;12.050;2023-04-01T17:11:37;10.90;99.90
13123;DHT22;6627;50.920;12.050;2023-04-01T17:14:20;11.00;99.90
13123;DHT22;6627;50.920;12.050;2023-04-01T17:17:16;11.10;99.90
13123;DHT22;6627;50.920;12.050;2023-04-01T17:20:12;11.20;99.90
13123;DHT22;6627;50.920;12.050;2023-04-01T17:22:55;11.20;99.90
13123;DHT22;6627;50.920;12.050;2023-04-01T17:25:39;11.20;99.90
13123;DHT22;6627;50.920;12.050;2023-04-01T17:28:27;11.10;99.90
13123;DHT22;6627;50.920;12.050;2023-04-01T17:31:10;11.10;99.90
13123;DHT22;6627;50.920;12.050;2023-04-01T17:33:55;11.10;99.90
13123;DHT22;6627;50.920;12.050;2023-04-01T17:36:38;11.10;99.90
13123;DHT22;6627;50.920;12.050;2023-04-01T17:39:26;11.10;99.90
13123;DHT22;6627;50.920;12.050;2023-04-01T17:42:06;10.70;99.90
13123;DHT22;6627;50.920;12.050;2023-04-01T17:44:47;10.50;99.90
13123;DHT22;6627;50.920;12.050;2023-04-01T17:47:40;10.30;99.90
13123;DHT22;6627;50.920;12.050;2023-04-01T17:50:21;10.20;99.90
13123;DHT22;6627;50.920;12.050;2023-04-01T17:53:07;10.20;99.90
13123;DHT22;6627;50.920;12.050;2023-04-01T17:56:04;10.20;99.90
13123;DHT22;6627;50.920;12.050;2023-04-01T17:58:45;10.20;99.90
13123;DHT22;6627;50.920;12.050;2023-04-01T18:01:22;10.10;99.90
13123;DHT22;6627;50.920;12.050;2023-04-01T18:07:05;10.10;99.90
13123;DHT22;6627;50.920;12.050;2023-04-01T18:10:00;10.10;99.90
13123;DHT22;6627;50.920;12.050;2023-04-01T18:12:52;10.10;99.90
13123;DHT22;6627;50.920;12.050;2023-04-01T18:16:02;10.10;99.90
13123;DHT22;6627;50.920;12.050;2023-04-01T18:18:48;10.10;99.90
13123;DHT22;6627;50.920;12.050;2023-04-01T18:21:27;10.10;99.90
13123;DHT22;6627;50.920;12.050;2023-04-01T18:24:14;10.10;99.90
13123;DHT22;6627;50.920;12.050;2023-04-01T18:26:59;10.10;99.90
13123;DHT22;6627;50.920;12.050;2023-04-01T18:29:39;10.00;99.90
13123;DHT22;6627;50.920;12.050;2023-04-01T18:32:17;10.00;99.90
13123;DHT22;6627;50.920;12.050;2023-04-01T18:34:57;10.00;99.90
13123;DHT22;6627;50.920;12.050;2023-04-01T18:37:32;10.00;99.90
13123;DHT22;6627;50.920;12.050;2023-04-01T18:40:13;10.00;99.90
13123;DHT22;6627;50.920;12.050;2023-04-01T18:43:00;10.00;99.90
13123;DHT22;6627;50.920;12.050;2023-04-01T18:45:43;10.10;99.90
13123;DHT22;6627;50.920;12.050;2023-04-01T18:48:33;10.20;99.90
13123;DHT22;6627;50.920;12.050;2023-04-01T18:51:14;10.10;99.90
13123;DHT22;6627;50.920;12.050;2023-04-01T18:53:48;10.00;99.90
13123;DHT22;6627;50.920;12.050;2023-04-01T18:56:26;9.90;99.90
13123;DHT22;6627;50.920;12.050;2023-04-01T18:59:04;9.90;99.90
13123;DHT22;6627;50.920;12.050;2023-04-01T19:01:41;9.90;99.90
13123;DHT22;6627;50.920;12.050;2023-04-01T19:04:23;9.90;99.90